createdAt,value
2022-08-06T00:00:08.307Z,13.1
2022-08-06T00:10:06.847Z,12.5
2022-08-06T00:20:07.066Z,12.2
2022-08-06T00:30:10.069Z,11.9
2022-08-06T00:40:08.245Z,11.8
2022-08-06T01:00:18.082Z,11.6
2022-08-06T01:10:10.078Z,11.6
2022-08-06T01:21:22.319Z,11.5
2022-08-06T01:30:10.979Z,11.5
2022-08-06T01:40:12.005Z,11.4
2022-08-06T02:00:13.805Z,10.9
2022-08-06T02:20:18.289Z,10.8
2022-08-06T02:30:15.342Z,10.8
2022-08-06T02:40:15.871Z,10.8
2022-08-06T03:00:17.742Z,10.6
2022-08-06T03:10:18.324Z,10.5
2022-08-06T03:20:18.882Z,10.5
2022-08-06T03:30:30.843Z,10.3
2022-08-06T03:40:20.127Z,10.1
2022-08-06T03:50:20.547Z,10
2022-08-06T04:00:22.542Z,9.9
2022-08-06T04:10:22.656Z,9.8
2022-08-06T04:20:41.413Z,9.8
2022-08-06T04:30:25.185Z,9.9
2022-08-06T04:40:27.680Z,10
2022-08-06T05:00:31.962Z,10.1
2022-08-06T05:10:26.697Z,10.3
2022-08-06T05:20:27.423Z,10.5
2022-08-06T05:30:28.363Z,10.8
2022-08-06T05:40:34.418Z,11.5
2022-08-06T05:50:29.251Z,11.9
2022-08-06T06:00:31.324Z,12.2
2022-08-06T06:10:30.130Z,12.5
2022-08-06T06:20:37.176Z,12.9
2022-08-06T06:30:33.344Z,13.3
2022-08-06T06:40:32.107Z,13.8
2022-08-06T07:00:44.955Z,14.9
2022-08-06T07:10:33.748Z,15.3
2022-08-06T07:20:34.614Z,15.7
2022-08-06T07:30:35.183Z,16.1
2022-08-06T07:40:35.423Z,16.7
2022-08-06T07:50:36.367Z,16.9
2022-08-06T08:00:38.187Z,17
2022-08-06T08:10:38.102Z,17.2
2022-08-06T08:20:38.238Z,17.5
2022-08-06T08:30:38.822Z,17.7
2022-08-06T08:40:39.220Z,17.9
2022-08-06T08:50:39.763Z,18.1
2022-08-06T09:10:41.262Z,18.3
2022-08-06T09:20:45.898Z,18.6
2022-08-06T09:40:43.507Z,18.6
2022-08-06T09:50:44.299Z,18.9
2022-08-06T10:00:46.198Z,19.3
2022-08-06T10:10:45.365Z,19.7
2022-08-06T10:20:45.660Z,20.3
2022-08-06T10:30:46.482Z,20.3
2022-08-06T10:40:57.553Z,20
2022-08-06T10:50:54.491Z,20.5
2022-08-06T11:00:52.871Z,20.7
2022-08-06T11:10:49.491Z,20
2022-08-06T11:20:49.700Z,20.7
2022-08-06T11:30:51.338Z,21.4
2022-08-06T11:31:18.419Z,21.4
2022-08-06T11:50:56.439Z,21.2
2022-08-06T12:10:58.010Z,21.1
2022-08-06T12:20:59.959Z,20.9
2022-08-06T12:40:58.939Z,20.3
2022-08-06T12:50:59.552Z,20.2
2022-08-06T13:11:01.658Z,20.7
2022-08-06T13:21:02.814Z,23.1
2022-08-06T13:31:03.331Z,24.5
2022-08-06T13:41:04.474Z,23.8
2022-08-06T13:51:04.404Z,24.6
2022-08-06T14:01:04.796Z,24.6
2022-08-06T14:21:06.426Z,22.5
2022-08-06T14:41:09.713Z,22
2022-08-06T15:01:15.176Z,24.5
2022-08-06T15:31:09.757Z,23.4
2022-08-06T15:41:10.410Z,22.4
2022-08-06T16:01:12.346Z,21.7
2022-08-06T16:11:13.765Z,21.6
2022-08-06T16:21:13.661Z,21.5
2022-08-06T16:31:14.821Z,21.5
2022-08-06T16:41:14.444Z,21.6
2022-08-06T16:52:41.644Z,21.8
2022-08-06T17:02:12.440Z,21.9
2022-08-06T17:11:44.986Z,21.5
2022-08-06T17:21:17.017Z,21.2
2022-08-06T17:31:55.068Z,21
2022-08-06T17:41:18.534Z,20.8
2022-08-06T17:51:21.008Z,20.7
2022-08-06T18:01:43.407Z,20.6
2022-08-06T18:11:20.380Z,20.4
2022-08-06T18:21:24.372Z,20.3
2022-08-06T18:31:21.787Z,20.1
2022-08-06T18:41:22.199Z,20
2022-08-06T18:51:23.247Z,19.7
2022-08-06T19:01:23.474Z,19.3
2022-08-06T19:11:24.037Z,19
2022-08-06T19:31:42.909Z,18.3
2022-08-06T19:41:55.002Z,17.9
2022-08-06T20:12:00.317Z,16.9
2022-08-06T20:21:42.527Z,16.6
2022-08-06T20:31:30.959Z,16.4
2022-08-06T20:41:59.383Z,16.2
2022-08-06T20:51:29.554Z,15.9
2022-08-06T21:01:30.652Z,15.9
2022-08-06T21:11:31.630Z,15.8
2022-08-06T21:21:32.414Z,15.6
2022-08-06T21:31:32.560Z,15.5
2022-08-06T21:41:42.218Z,15.3
2022-08-06T21:51:35.041Z,15.1
2022-08-06T22:02:11.351Z,14.9
2022-08-06T22:12:35.818Z,14.7
2022-08-06T22:21:41.857Z,14.5
2022-08-06T22:31:56.328Z,14.3
2022-08-06T22:41:42.156Z,14.1
2022-08-06T22:51:45.829Z,13.9
2022-08-06T23:02:04.274Z,13.7
2022-08-06T23:11:39.398Z,13.6
2022-08-06T23:21:50.926Z,13.4
2022-08-06T23:31:41.425Z,13.3
2022-08-06T23:41:58.670Z,13.1
2022-08-06T23:52:02.069Z,13
